Time;durP1;ratioP1;P1;durP2;ratioP2;P2;SDS_P1;SDS_P2;PMS_P1;PMS_P2;Temp;Humidity;BMP_temperature;BMP_pressure;BME280_temperature;BME280_humidity;BME280_pressure;Samples;Min_cycle;Max_cycle;Signal;HPM_P1;HPM_P2
2023/10/21 00:01:18;;;;;;;;;;;12.20;99.90;;;;;;5011108;28;20445;-72
2023/10/21 00:03:44;;;;;;;;;;;12.20;99.90;;;;;;5013540;28;19941;-72
2023/10/21 00:06:11;;;;;;;;;;;12.10;99.90;;;;;;5011967;28;19987;-71
2023/10/21 00:08:37;;;;;;;;;;;12.10;99.90;;;;;;5011765;28;19929;-71
2023/10/21 00:11:06;;;;;;;;;;;12.10;99.90;;;;;;5010886;28;20320;-71
2023/10/21 00:13:33;;;;;;;;;;;12.00;99.90;;;;;;5011051;28;19995;-71
2023/10/21 00:15:59;;;;;;;;;;;12.00;99.90;;;;;;5005551;28;19937;-71
2023/10/21 00:18:26;;;;;;;;;;;12.00;99.90;;;;;;5011065;28;19929;-69
2023/10/21 00:20:53;;;;;;;;;;;11.90;99.90;;;;;;5011976;28;19925;-70
2023/10/21 00:23:20;;;;;;;;;;;11.90;99.90;;;;;;5011550;28;19925;-70
2023/10/21 00:25:46;;;;;;;;;;;11.90;99.90;;;;;;5007245;28;19937;-70
2023/10/21 00:28:14;;;;;;;;;;;11.90;99.90;;;;;;5010788;28;19929;-70
2023/10/21 00:30:45;;;;;;;;;;;11.90;99.90;;;;;;5010069;28;19925;-71
2023/10/21 00:33:12;;;;;;;;;;;11.90;99.90;;;;;;5010578;28;19940;-71
2023/10/21 00:35:39;;;;;;;;;;;11.90;99.90;;;;;;5010798;28;20051;-71
2023/10/21 00:38:06;;;;;;;;;;;11.90;99.90;;;;;;5008866;28;19976;-71
2023/10/21 00:40:33;;;;;;;;;;;11.90;99.90;;;;;;5010685;28;19925;-71
2023/10/21 00:42:59;;;;;;;;;;;11.90;99.90;;;;;;5010471;28;19925;-70
2023/10/21 00:45:27;;;;;;;;;;;11.90;99.90;;;;;;5009803;28;19937;-70
2023/10/21 00:47:54;;;;;;;;;;;11.90;99.90;;;;;;5010430;28;19926;-70
2023/10/21 00:50:21;;;;;;;;;;;11.90;99.90;;;;;;5010782;28;19925;-70
2023/10/21 00:52:48;;;;;;;;;;;11.90;99.90;;;;;;5010647;28;19929;-70
2023/10/21 00:55:14;;;;;;;;;;;11.90;99.90;;;;;;5012755;28;20399;-70
2023/10/21 00:57:41;;;;;;;;;;;12.00;99.90;;;;;;5008566;28;19929;-70
2023/10/21 01:00:11;;;;;;;;;;;12.00;99.90;;;;;;5013267;28;19983;-70
2023/10/21 01:02:40;;;;;;;;;;;12.00;99.90;;;;;;5014628;28;19934;-70
2023/10/21 01:05:06;;;;;;;;;;;12.00;99.90;;;;;;5014356;28;20374;-70
2023/10/21 01:07:33;;;;;;;;;;;12.10;99.90;;;;;;5012239;28;20387;-70
2023/10/21 01:09:59;;;;;;;;;;;12.10;99.90;;;;;;5013785;28;19987;-71
2023/10/21 01:12:26;;;;;;;;;;;12.10;99.90;;;;;;5014322;28;19925;-70
2023/10/21 01:14:53;;;;;;;;;;;12.10;99.90;;;;;;5014542;28;19952;-70
2023/10/21 01:17:19;;;;;;;;;;;12.10;99.90;;;;;;5014112;28;19925;-70
2023/10/21 01:19:48;;;;;;;;;;;12.10;99.90;;;;;;5013779;28;19925;-70
2023/10/21 01:22:15;;;;;;;;;;;12.10;99.90;;;;;;5013184;28;19933;-70
2023/10/21 01:24:43;;;;;;;;;;;12.10;99.90;;;;;;5014235;28;19925;-70
2023/10/21 01:27:09;;;;;;;;;;;12.20;99.90;;;;;;5013732;28;19930;-70
2023/10/21 01:29:37;;;;;;;;;;;12.20;99.90;;;;;;5013783;28;19933;-70
2023/10/21 01:32:03;;;;;;;;;;;12.30;99.90;;;;;;5013973;28;19980;-70
2023/10/21 01:34:30;;;;;;;;;;;12.30;99.90;;;;;;5012971;28;19984;-70
2023/10/21 01:36:56;;;;;;;;;;;12.30;99.90;;;;;;5018076;28;19929;-70
2023/10/21 01:39:23;;;;;;;;;;;12.40;99.90;;;;;;5014001;28;20362;-70
2023/10/21 01:41:51;;;;;;;;;;;12.40;99.90;;;;;;5014222;28;19929;-70
2023/10/21 01:44:17;;;;;;;;;;;12.40;99.90;;;;;;5011884;28;20343;-71
2023/10/21 01:46:44;;;;;;;;;;;12.40;99.90;;;;;;5013229;28;19972;-70
2023/10/21 01:49:10;;;;;;;;;;;12.40;99.90;;;;;;5013655;28;19925;-71
2023/10/21 01:51:37;;;;;;;;;;;12.40;99.90;;;;;;5013556;28;19979;-70
2023/10/21 01:54:04;;;;;;;;;;;12.40;99.90;;;;;;5010314;28;19925;-70
2023/10/21 01:56:31;;;;;;;;;;;12.40;99.90;;;;;;5013165;28;19926;-71
2023/10/21 01:58:58;;;;;;;;;;;12.40;99.90;;;;;;5013120;28;19932;-70
2023/10/21 02:01:25;;;;;;;;;;;12.40;99.90;;;;;;5013162;28;20380;-71
2023/10/21 02:03:52;;;;;;;;;;;12.40;99.90;;;;;;5013420;28;19929;-71
2023/10/21 02:06:18;;;;;;;;;;;12.40;99.90;;;;;;5012750;28;20384;-70
2023/10/21 02:08:45;;;;;;;;;;;12.40;99.90;;;;;;5011281;28;19960;-70
2023/10/21 02:11:11;;;;;;;;;;;12.40;99.90;;;;;;5015503;28;19929;-70
2023/10/21 02:13:38;;;;;;;;;;;12.40;99.90;;;;;;5011424;28;19932;-71
2023/10/21 02:16:10;;;;;;;;;;;12.40;99.90;;;;;;5012796;28;20330;-71
2023/10/21 02:18:37;;;;;;;;;;;12.40;99.90;;;;;;5014761;28;20033;-70
2023/10/21 02:21:05;;;;;;;;;;;12.40;99.90;;;;;;5012421;28;19932;-71
2023/10/21 02:23:32;;;;;;;;;;;12.40;99.90;;;;;;5012122;28;19929;-71
2023/10/21 02:26:01;;;;;;;;;;;12.40;99.90;;;;;;5015327;28;20388;-71
2023/10/21 02:28:28;;;;;;;;;;;12.40;99.90;;;;;;5013078;28;19929;-71
2023/10/21 02:30:55;;;;;;;;;;;12.40;99.90;;;;;;5012252;28;19991;-71
2023/10/21 02:33:22;;;;;;;;;;;12.40;99.90;;;;;;5012511;28;19926;-71
2023/10/21 02:35:51;;;;;;;;;;;12.40;99.90;;;;;;5013360;28;20303;-70
2023/10/21 02:38:17;;;;;;;;;;;12.40;99.90;;;;;;5012020;28;19926;-71
2023/10/21 02:40:44;;;;;;;;;;;12.50;99.90;;;;;;5012797;28;19956;-70
2023/10/21 02:43:11;;;;;;;;;;;12.50;99.90;;;;;;5012254;28;20273;-71
2023/10/21 02:45:37;;;;;;;;;;;12.50;99.90;;;;;;5012052;28;19948;-71
2023/10/21 02:48:04;;;;;;;;;;;12.60;99.90;;;;;;5012523;28;19926;-70
2023/10/21 02:50:32;;;;;;;;;;;12.60;99.90;;;;;;5012188;28;19925;-71
2023/10/21 02:52:58;;;;;;;;;;;12.70;99.90;;;;;;5013203;28;20028;-71
2023/10/21 02:55:26;;;;;;;;;;;12.80;99.90;;;;;;5012954;28;19925;-71
2023/10/21 02:57:52;;;;;;;;;;;12.90;99.90;;;;;;5012511;28;20303;-70
2023/10/21 03:00:21;;;;;;;;;;;13.00;99.90;;;;;;5012232;28;20013;-71
2023/10/21 03:02:48;;;;;;;;;;;13.00;99.90;;;;;;5012076;28;20379;-70
2023/10/21 03:05:15;;;;;;;;;;;13.10;99.90;;;;;;5012905;28;19925;-70
2023/10/21 03:07:43;;;;;;;;;;;13.20;99.90;;;;;;5012462;28;19952;-71
2023/10/21 03:10:10;;;;;;;;;;;13.20;99.90;;;;;;5012968;28;20306;-70
2023/10/21 03:12:36;;;;;;;;;;;13.30;99.90;;;;;;5012000;28;19929;-70
2023/10/21 03:15:03;;;;;;;;;;;13.30;99.90;;;;;;5010119;28;20391;-70
2023/10/21 03:17:30;;;;;;;;;;;13.30;99.90;;;;;;5011468;28;19929;-71
2023/10/21 03:19:57;;;;;;;;;;;13.30;99.90;;;;;;5008179;28;20411;-70
2023/10/21 03:22:25;;;;;;;;;;;13.30;99.90;;;;;;5012382;28;19945;-71
2023/10/21 03:24:53;;;;;;;;;;;13.30;99.90;;;;;;5012511;28;20012;-70
2023/10/21 03:27:20;;;;;;;;;;;13.30;99.90;;;;;;5012589;28;19926;-70
2023/10/21 03:29:47;;;;;;;;;;;13.40;99.90;;;;;;5011493;28;20000;-70
2023/10/21 03:32:13;;;;;;;;;;;13.40;99.90;;;;;;5011465;28;19925;-70
2023/10/21 03:34:40;;;;;;;;;;;13.40;99.90;;;;;;5012225;28;19925;-70
2023/10/21 03:37:07;;;;;;;;;;;13.40;99.90;;;;;;5012663;28;19930;-70
2023/10/21 03:39:34;;;;;;;;;;;13.40;99.90;;;;;;5010933;28;19933;-70
2023/10/21 03:42:01;;;;;;;;;;;13.40;99.90;;;;;;5012724;28;19925;-70
2023/10/21 03:44:28;;;;;;;;;;;13.40;99.90;;;;;;5011644;28;19929;-70
2023/10/21 03:46:55;;;;;;;;;;;13.40;99.90;;;;;;5011345;28;20414;-70
2023/10/21 03:49:21;;;;;;;;;;;13.40;99.90;;;;;;5012995;28;19940;-70
2023/10/21 03:51:49;;;;;;;;;;;13.40;99.90;;;;;;5010876;28;22521;-70
2023/10/21 03:54:16;;;;;;;;;;;13.50;99.90;;;;;;5011684;28;19925;-70
2023/10/21 03:56:42;;;;;;;;;;;13.50;99.90;;;;;;5011204;28;19925;-70
2023/10/21 03:59:10;;;;;;;;;;;13.50;99.90;;;;;;5011256;28;19926;-70
2023/10/21 04:01:37;;;;;;;;;;;13.60;99.90;;;;;;5012867;28;19929;-70
2023/10/21 04:04:03;;;;;;;;;;;13.70;99.90;;;;;;5011799;28;19925;-70
2023/10/21 04:06:30;;;;;;;;;;;13.80;99.90;;;;;;5009188;28;19972;-71
2023/10/21 04:08:56;;;;;;;;;;;13.80;99.90;;;;;;5011166;28;20048;-70
2023/10/21 04:11:23;;;;;;;;;;;13.80;99.90;;;;;;5011540;28;19925;-70
2023/10/21 04:13:49;;;;;;;;;;;13.80;99.90;;;;;;5011421;28;19925;-70
2023/10/21 04:16:17;;;;;;;;;;;13.80;99.90;;;;;;5009457;28;19940;-71
2023/10/21 04:18:44;;;;;;;;;;;13.80;99.90;;;;;;5011037;28;19972;-70
2023/10/21 04:21:11;;;;;;;;;;;13.70;99.90;;;;;;5015509;28;19973;-70
2023/10/21 04:23:37;;;;;;;;;;;13.70;99.90;;;;;;5011202;28;19926;-70
2023/10/21 04:26:04;;;;;;;;;;;13.60;99.90;;;;;;5011438;28;20028;-70
2023/10/21 04:28:31;;;;;;;;;;;13.60;99.90;;;;;;5011216;28;19979;-71
2023/10/21 04:30:58;;;;;;;;;;;13.60;99.90;;;;;;5014210;28;20387;-70
2023/10/21 04:33:26;;;;;;;;;;;13.60;99.90;;;;;;5011765;28;19925;-70
2023/10/21 04:35:52;;;;;;;;;;;13.60;99.90;;;;;;5010192;28;19930;-70
2023/10/21 04:38:19;;;;;;;;;;;13.60;99.90;;;;;;5015053;28;19925;-71
2023/10/21 04:40:45;;;;;;;;;;;13.60;99.90;;;;;;5014680;28;19933;-71
2023/10/21 04:43:12;;;;;;;;;;;13.60;99.90;;;;;;5015126;28;19979;-70
2023/10/21 04:45:39;;;;;;;;;;;13.60;99.90;;;;;;5017056;28;20461;-71
2023/10/21 04:48:05;;;;;;;;;;;13.60;99.90;;;;;;5018812;28;19930;-71
2023/10/21 04:50:33;;;;;;;;;;;13.50;99.90;;;;;;5014760;28;19972;-70
2023/10/21 04:53:00;;;;;;;;;;;13.50;99.90;;;;;;5010701;28;20294;-71
2023/10/21 04:55:27;;;;;;;;;;;13.50;99.90;;;;;;5014860;28;20012;-70
2023/10/21 04:57:53;;;;;;;;;;;13.50;99.90;;;;;;5014870;28;19932;-70
2023/10/21 05:00:20;;;;;;;;;;;13.60;99.90;;;;;;5014372;28;19972;-71
2023/10/21 05:02:46;;;;;;;;;;;13.60;99.90;;;;;;5019816;28;19937;-71
2023/10/21 05:05:13;;;;;;;;;;;13.60;99.90;;;;;;5014399;28;19973;-71
2023/10/21 05:07:41;;;;;;;;;;;13.50;99.90;;;;;;5014125;28;19933;-70
2023/10/21 05:10:08;;;;;;;;;;;13.50;99.90;;;;;;5013429;28;19937;-70
2023/10/21 05:12:34;;;;;;;;;;;13.50;99.90;;;;;;5014775;28;19926;-71
2023/10/21 05:15:01;;;;;;;;;;;13.50;99.90;;;;;;5011007;28;19925;-70
2023/10/21 05:17:28;;;;;;;;;;;13.50;99.90;;;;;;5014315;28;19925;-71
2023/10/21 05:19:55;;;;;;;;;;;13.50;99.90;;;;;;5015622;28;19925;-71
2023/10/21 05:22:21;;;;;;;;;;;13.40;99.90;;;;;;5013931;28;19925;-70
2023/10/21 05:24:49;;;;;;;;;;;13.40;99.90;;;;;;5014091;28;20384;-70
2023/10/21 05:27:15;;;;;;;;;;;13.40;99.90;;;;;;5013890;28;19976;-71
2023/10/21 05:29:42;;;;;;;;;;;13.40;99.90;;;;;;5013719;28;20380;-71
2023/10/21 05:32:08;;;;;;;;;;;13.40;99.90;;;;;;5014105;28;19980;-71
2023/10/21 05:34:35;;;;;;;;;;;13.30;99.90;;;;;;5014078;28;19926;-71
2023/10/21 05:37:01;;;;;;;;;;;13.40;99.90;;;;;;5013778;28;19929;-71
2023/10/21 05:39:28;;;;;;;;;;;13.30;99.90;;;;;;5013016;28;20447;-71
2023/10/21 05:41:56;;;;;;;;;;;13.30;99.90;;;;;;5014002;28;19980;-71
2023/10/21 05:44:22;;;;;;;;;;;13.30;99.90;;;;;;5013061;28;19929;-71
2023/10/21 05:46:49;;;;;;;;;;;13.30;99.90;;;;;;5011981;28;19929;-71
2023/10/21 05:49:15;;;;;;;;;;;13.30;99.90;;;;;;5014018;28;19979;-71
2023/10/21 05:51:42;;;;;;;;;;;13.20;99.90;;;;;;5013618;28;20677;-71
2023/10/21 05:54:08;;;;;;;;;;;13.20;99.90;;;;;;5016080;28;19925;-72
2023/10/21 05:56:35;;;;;;;;;;;13.20;99.90;;;;;;5013764;28;19929;-71
2023/10/21 05:59:04;;;;;;;;;;;13.20;99.90;;;;;;5012578;28;19937;-71
2023/10/21 06:01:30;;;;;;;;;;;13.20;99.90;;;;;;5013242;28;19932;-70
2023/10/21 06:03:57;;;;;;;;;;;13.10;99.90;;;;;;5015257;28;19983;-70
2023/10/21 06:06:23;;;;;;;;;;;13.00;99.90;;;;;;5012853;28;19995;-70
2023/10/21 06:08:50;;;;;;;;;;;13.00;99.90;;;;;;5006726;28;19926;-71
2023/10/21 06:11:16;;;;;;;;;;;12.90;99.90;;;;;;5013669;28;20347;-70
2023/10/21 06:13:43;;;;;;;;;;;12.90;99.90;;;;;;5013528;28;19926;-71
2023/10/21 06:16:11;;;;;;;;;;;12.90;99.90;;;;;;5013391;28;20009;-71
2023/10/21 06:18:37;;;;;;;;;;;12.80;99.90;;;;;;5013040;28;20346;-71
2023/10/21 06:21:04;;;;;;;;;;;12.80;99.90;;;;;;5013146;28;19933;-71
2023/10/21 06:23:31;;;;;;;;;;;12.80;99.90;;;;;;5013385;28;19926;-71
2023/10/21 06:25:58;;;;;;;;;;;12.80;99.90;;;;;;5007380;28;19926;-71
2023/10/21 06:28:24;;;;;;;;;;;12.80;99.90;;;;;;5012165;28;19925;-71
2023/10/21 06:30:51;;;;;;;;;;;13.00;99.90;;;;;;5007418;28;19929;-71
2023/10/21 06:33:19;;;;;;;;;;;13.20;99.90;;;;;;5012066;28;19975;-71
2023/10/21 06:35:45;;;;;;;;;;;13.60;99.90;;;;;;5012141;28;19984;-71
2023/10/21 06:38:12;;;;;;;;;;;14.30;99.90;;;;;;5016522;28;19925;-70
2023/10/21 06:40:38;;;;;;;;;;;14.90;99.90;;;;;;5013529;28;19991;-71
2023/10/21 06:43:05;;;;;;;;;;;15.50;99.90;;;;;;5012263;28;19940;-71
2023/10/21 06:45:32;;;;;;;;;;;15.90;99.90;;;;;;5012338;28;20016;-70
2023/10/21 06:48:01;;;;;;;;;;;15.90;99.90;;;;;;5011169;28;20391;-71
2023/10/21 06:50:30;;;;;;;;;;;15.70;99.90;;;;;;5010567;28;19956;-71
2023/10/21 06:52:56;;;;;;;;;;;15.40;99.90;;;;;;5011000;28;19939;-72
2023/10/21 06:55:23;;;;;;;;;;;15.20;99.90;;;;;;5010662;28;19972;-71
2023/10/21 06:57:51;;;;;;;;;;;14.80;99.90;;;;;;5010138;28;20330;-71
2023/10/21 07:00:18;;;;;;;;;;;14.40;99.90;;;;;;5009784;28;19929;-71
2023/10/21 07:02:45;;;;;;;;;;;14.20;99.90;;;;;;5010632;28;20454;-71
2023/10/21 07:05:12;;;;;;;;;;;14.00;99.90;;;;;;5015454;28;20422;-71
2023/10/21 07:07:41;;;;;;;;;;;14.00;99.90;;;;;;5011833;28;19979;-71
2023/10/21 07:10:09;;;;;;;;;;;14.30;99.90;;;;;;5012084;28;20365;-71
2023/10/21 07:12:36;;;;;;;;;;;14.30;99.90;;;;;;5012136;28;20383;-71
2023/10/21 07:15:04;;;;;;;;;;;14.20;99.90;;;;;;5011559;28;20001;-72
2023/10/21 07:17:31;;;;;;;;;;;14.00;99.90;;;;;;5011804;28;19925;-71
2023/10/21 07:19:58;;;;;;;;;;;13.90;99.90;;;;;;5012093;28;20023;-71
2023/10/21 07:22:24;;;;;;;;;;;13.90;99.90;;;;;;5012239;28;19956;-70
2023/10/21 07:24:55;;;;;;;;;;;13.90;99.90;;;;;;5009366;28;19929;-71
2023/10/21 07:27:22;;;;;;;;;;;13.90;99.90;;;;;;5011676;28;20362;-71
2023/10/21 07:29:48;;;;;;;;;;;14.00;99.90;;;;;;5013778;28;19937;-71
2023/10/21 07:32:15;;;;;;;;;;;14.00;99.90;;;;;;5008700;28;19956;-73
2023/10/21 07:34:42;;;;;;;;;;;14.30;99.90;;;;;;5011591;28;19929;-74
2023/10/21 07:37:08;;;;;;;;;;;14.90;99.90;;;;;;5009843;28;19936;-73
2023/10/21 07:39:34;;;;;;;;;;;15.80;99.90;;;;;;5011390;28;19995;-74
2023/10/21 07:42:02;;;;;;;;;;;16.60;99.90;;;;;;5011345;28;20376;-74
2023/10/21 07:44:29;;;;;;;;;;;17.50;99.90;;;;;;5010997;28;20395;-74
2023/10/21 07:46:55;;;;;;;;;;;18.00;99.90;;;;;;5009551;28;20396;-73
2023/10/21 07:49:23;;;;;;;;;;;17.90;99.90;;;;;;5010199;28;19948;-74
2023/10/21 07:51:49;;;;;;;;;;;17.90;99.90;;;;;;5011129;28;20271;-74
2023/10/21 07:54:16;;;;;;;;;;;17.60;99.90;;;;;;5010703;28;19925;-74
2023/10/21 07:56:44;;;;;;;;;;;17.30;99.90;;;;;;5010957;28;20360;-73
2023/10/21 07:59:12;;;;;;;;;;;17.10;99.90;;;;;;5011472;28;19940;-72
2023/10/21 08:01:38;;;;;;;;;;;16.90;99.90;;;;;;5011083;28;19930;-73
2023/10/21 08:04:05;;;;;;;;;;;16.40;99.90;;;;;;5010912;28;19929;-73
2023/10/21 08:06:31;;;;;;;;;;;15.80;99.90;;;;;;5008142;28;19925;-74
2023/10/21 08:08:58;;;;;;;;;;;15.40;99.90;;;;;;5009952;28;19930;-73
2023/10/21 08:11:24;;;;;;;;;;;15.10;99.90;;;;;;5011113;28;20351;-70
2023/10/21 08:13:51;;;;;;;;;;;14.80;99.90;;;;;;5006851;28;20394;-71
2023/10/21 08:16:19;;;;;;;;;;;14.60;99.90;;;;;;5006098;28;20330;-70
2023/10/21 08:18:46;;;;;;;;;;;14.50;99.90;;;;;;5011419;28;19937;-70
2023/10/21 08:21:13;;;;;;;;;;;14.40;99.90;;;;;;5010987;28;19979;-70
2023/10/21 08:23:39;;;;;;;;;;;14.40;99.90;;;;;;5010830;28;19925;-70
2023/10/21 08:26:06;;;;;;;;;;;14.40;99.90;;;;;;5011350;28;19976;-70
2023/10/21 08:28:32;;;;;;;;;;;14.30;99.90;;;;;;5011158;28;19925;-70
2023/10/21 08:30:59;;;;;;;;;;;14.40;99.90;;;;;;5010335;28;19926;-71
2023/10/21 08:33:27;;;;;;;;;;;14.40;99.90;;;;;;5010866;28;19925;-71
2023/10/21 08:35:54;;;;;;;;;;;14.70;99.90;;;;;;5010719;28;19926;-71
2023/10/21 08:38:20;;;;;;;;;;;15.20;99.90;;;;;;5010719;28;19930;-70
2023/10/21 08:40:47;;;;;;;;;;;15.60;99.90;;;;;;5010771;28;20589;-71
2023/10/21 08:43:16;;;;;;;;;;;16.00;99.90;;;;;;5011041;28;20004;-71
2023/10/21 08:45:44;;;;;;;;;;;16.40;99.90;;;;;;5010665;28;19972;-70
2023/10/21 08:48:12;;;;;;;;;;;16.60;99.90;;;;;;5010583;28;19925;-70
2023/10/21 08:50:40;;;;;;;;;;;16.80;99.90;;;;;;5012571;28;19930;-71
2023/10/21 08:53:07;;;;;;;;;;;17.10;99.90;;;;;;5011098;28;19932;-71
2023/10/21 08:55:36;;;;;;;;;;;17.30;99.90;;;;;;5010874;28;19925;-70
2023/10/21 08:58:03;;;;;;;;;;;17.40;99.90;;;;;;5011034;28;20012;-71
2023/10/21 09:00:29;;;;;;;;;;;17.30;99.90;;;;;;5010614;28;19929;-71
2023/10/21 09:02:56;;;;;;;;;;;16.90;99.90;;;;;;5010715;28;19976;-70
2023/10/21 09:05:23;;;;;;;;;;;16.50;99.90;;;;;;5011603;28;19932;-71
2023/10/21 09:07:50;;;;;;;;;;;16.30;99.90;;;;;;5009895;28;19929;-70
2023/10/21 09:10:17;;;;;;;;;;;16.10;99.90;;;;;;5010611;28;19925;-71
2023/10/21 09:12:45;;;;;;;;;;;16.10;99.90;;;;;;5010814;28;19932;-71
2023/10/21 09:15:12;;;;;;;;;;;16.20;99.90;;;;;;5006800;28;19926;-70
2023/10/21 09:17:39;;;;;;;;;;;16.30;99.90;;;;;;5009902;28;19930;-70
2023/10/21 09:20:09;;;;;;;;;;;16.20;99.90;;;;;;5011965;28;19934;-70
2023/10/21 09:22:36;;;;;;;;;;;16.10;99.90;;;;;;5013976;28;19932;-70
2023/10/21 09:25:14;;;;;;;;;;;15.90;99.90;;;;;;5014747;28;19925;-70
2023/10/21 09:27:41;;;;;;;;;;;15.90;99.90;;;;;;5012466;28;20406;-70
2023/10/21 09:30:13;;;;;;;;;;;15.80;99.90;;;;;;5013320;28;19926;-71
2023/10/21 09:32:41;;;;;;;;;;;15.70;99.90;;;;;;5013448;28;19975;-70
2023/10/21 09:35:15;;;;;;;;;;;15.60;99.90;;;;;;5008342;28;19929;-70
2023/10/21 09:37:42;;;;;;;;;;;15.50;99.90;;;;;;5013247;28;20387;-70
2023/10/21 09:40:09;;;;;;;;;;;15.40;99.90;;;;;;5013694;28;19929;-70
2023/10/21 09:42:38;;;;;;;;;;;15.30;99.90;;;;;;5013228;28;19926;-70
2023/10/21 09:45:05;;;;;;;;;;;15.20;99.90;;;;;;5013377;28;19929;-70
2023/10/21 09:47:32;;;;;;;;;;;15.10;99.90;;;;;;5012260;28;19929;-70
2023/10/21 09:50:00;;;;;;;;;;;15.10;99.90;;;;;;5012178;28;19925;-70
2023/10/21 09:52:34;;;;;;;;;;;15.00;99.90;;;;;;5008982;28;19925;-71
2023/10/21 09:55:04;;;;;;;;;;;15.10;99.90;;;;;;5012819;28;19929;-71
2023/10/21 09:57:31;;;;;;;;;;;15.20;99.90;;;;;;5011447;28;19960;-71
2023/10/21 10:00:00;;;;;;;;;;;15.20;99.90;;;;;;5012864;28;19933;-71
2023/10/21 10:02:27;;;;;;;;;;;15.30;99.90;;;;;;5013443;28;19929;-71
2023/10/21 10:04:54;;;;;;;;;;;15.50;99.90;;;;;;5011545;28;19926;-71
2023/10/21 10:07:21;;;;;;;;;;;15.60;99.90;;;;;;5011706;28;19925;-71
2023/10/21 10:09:48;;;;;;;;;;;15.70;99.90;;;;;;5009210;28;19948;-70
2023/10/21 10:12:17;;;;;;;;;;;16.10;99.90;;;;;;5013495;28;19925;-70
2023/10/21 10:14:45;;;;;;;;;;;16.30;99.90;;;;;;5012437;28;19937;-70
2023/10/21 10:17:13;;;;;;;;;;;16.60;99.90;;;;;;5012544;28;19972;-70
2023/10/21 10:19:40;;;;;;;;;;;16.90;99.90;;;;;;5012286;28;19925;-70
2023/10/21 10:22:20;;;;;;;;;;;17.30;99.90;;;;;;5012984;28;19932;-71
2023/10/21 10:24:51;;;;;;;;;;;17.70;99.90;;;;;;5013166;28;19961;-70
2023/10/21 10:27:18;;;;;;;;;;;17.50;99.90;;;;;;5012799;28;20020;-70
2023/10/21 10:29:46;;;;;;;;;;;17.10;99.90;;;;;;5012454;28;20354;-70
2023/10/21 10:32:15;;;;;;;;;;;17.30;99.90;;;;;;5011795;28;19930;-71
2023/10/21 10:34:49;;;;;;;;;;;17.50;99.90;;;;;;5011539;28;20008;-71
2023/10/21 10:37:24;;;;;;;;;;;17.90;99.90;;;;;;5012908;28;19929;-71
2023/10/21 10:39:50;;;;;;;;;;;18.30;99.90;;;;;;5012259;28;19925;-70
2023/10/21 10:42:17;;;;;;;;;;;18.00;99.90;;;;;;5012657;28;19929;-70
2023/10/21 10:44:44;;;;;;;;;;;17.60;99.90;;;;;;5012230;28;19972;-70
2023/10/21 10:47:10;;;;;;;;;;;17.60;99.90;;;;;;5011254;28;19933;-71
2023/10/21 10:49:52;;;;;;;;;;;17.60;99.90;;;;;;5012285;28;19968;-70
2023/10/21 10:52:27;;;;;;;;;;;17.30;99.90;;;;;;5011975;28;20446;-70
2023/10/21 10:54:53;;;;;;;;;;;17.10;99.90;;;;;;5011416;28;19931;-70
2023/10/21 10:57:21;;;;;;;;;;;17.20;99.90;;;;;;5012645;28;19925;-70
2023/10/21 10:59:49;;;;;;;;;;;17.60;99.90;;;;;;5011627;28;20463;-70
2023/10/21 11:02:16;;;;;;;;;;;17.80;99.90;;;;;;5012233;28;19933;-70
2023/10/21 11:04:44;;;;;;;;;;;18.00;99.90;;;;;;5011482;28;20523;-70
2023/10/21 11:07:11;;;;;;;;;;;18.20;99.90;;;;;;5012073;28;19926;-71
2023/10/21 11:09:39;;;;;;;;;;;18.20;99.90;;;;;;5005658;28;19934;-70
2023/10/21 11:12:06;;;;;;;;;;;18.00;99.90;;;;;;5011067;28;20052;-70
2023/10/21 11:14:33;;;;;;;;;;;18.00;99.90;;;;;;5009114;28;19925;-69
2023/10/21 11:17:01;;;;;;;;;;;18.10;99.90;;;;;;5011076;28;19926;-69
2023/10/21 11:19:27;;;;;;;;;;;18.30;99.90;;;;;;5011050;28;19929;-69
2023/10/21 11:21:54;;;;;;;;;;;18.20;99.90;;;;;;5011584;28;19933;-70
2023/10/21 11:24:22;;;;;;;;;;;18.10;99.90;;;;;;5011829;28;19941;-70
2023/10/21 11:26:51;;;;;;;;;;;18.10;99.90;;;;;;5011235;28;20423;-70
2023/10/21 11:29:18;;;;;;;;;;;18.10;99.90;;;;;;5011631;28;20315;-69
2023/10/21 11:31:45;;;;;;;;;;;17.70;99.90;;;;;;5010394;28;20559;-69
2023/10/21 11:34:13;;;;;;;;;;;17.30;99.90;;;;;;5010404;28;19925;-69
2023/10/21 11:36:43;;;;;;;;;;;17.00;99.90;;;;;;5011138;28;19993;-70
2023/10/21 11:39:13;;;;;;;;;;;17.00;99.90;;;;;;5011245;28;19936;-70
2023/10/21 11:41:44;;;;;;;;;;;17.30;99.90;;;;;;5010969;28;19943;-70
2023/10/21 11:44:12;;;;;;;;;;;18.00;99.90;;;;;;5010744;28;19934;-70
2023/10/21 11:46:39;;;;;;;;;;;18.50;99.90;;;;;;5010506;28;21667;-70
2023/10/21 11:49:13;;;;;;;;;;;18.50;99.90;;;;;;5011147;28;20019;-72
2023/10/21 11:51:40;;;;;;;;;;;18.50;99.90;;;;;;5011138;28;20043;-71
2023/10/21 11:54:09;;;;;;;;;;;18.50;99.90;;;;;;5011677;28;19979;-71
2023/10/21 11:56:56;;;;;;;;;;;18.40;99.90;;;;;;5011529;28;19926;-71
2023/10/21 12:03:19;;;;;;;;;;;18.90;99.90;;;;;;5007154;28;19933;-70
2023/10/21 12:13:53;;;;;;;;;;;19.10;99.90;;;;;;5010450;28;20386;-72
2023/10/21 12:16:34;;;;;;;;;;;19.30;99.90;;;;;;5010296;28;19926;-70
2023/10/21 12:22:27;;;;;;;;;;;19.90;99.90;;;;;;4967285;28;19929;-69
2023/10/21 12:25:16;;;;;;;;;;;19.80;99.90;;;;;;4969630;28;19926;-69
2023/10/21 12:33:53;;;;;;;;;;;20.10;99.90;;;;;;4946130;29;19933;-69
2023/10/21 12:36:34;;;;;;;;;;;20.20;99.90;;;;;;4943077;29;20435;-69
2023/10/21 12:41:47;;;;;;;;;;;19.90;99.90;;;;;;5010171;28;20411;-69
2023/10/21 12:44:13;;;;;;;;;;;19.80;99.90;;;;;;5010743;28;19925;-69
2023/10/21 12:46:40;;;;;;;;;;;19.90;99.90;;;;;;5009829;28;20430;-69
2023/10/21 12:49:13;;;;;;;;;;;19.60;99.90;;;;;;5011060;28;19925;-70
2023/10/21 12:51:40;;;;;;;;;;;19.50;99.90;;;;;;5010576;28;19936;-70
2023/10/21 12:54:10;;;;;;;;;;;19.30;99.90;;;;;;5011070;28;19980;-70
2023/10/21 12:56:37;;;;;;;;;;;19.20;99.90;;;;;;5014295;28;19925;-70
2023/10/21 12:59:03;;;;;;;;;;;19.40;99.90;;;;;;5014984;28;20303;-70
2023/10/21 13:01:30;;;;;;;;;;;19.50;99.90;;;;;;5013923;28;19961;-70
2023/10/21 13:03:57;;;;;;;;;;;19.50;99.90;;;;;;5014340;28;19972;-69
2023/10/21 13:06:25;;;;;;;;;;;19.60;99.90;;;;;;5014534;28;19926;-69
2023/10/21 13:08:51;;;;;;;;;;;19.50;99.90;;;;;;5012500;28;20339;-70
2023/10/21 13:11:18;;;;;;;;;;;19.30;99.90;;;;;;5014379;28;19979;-71
2023/10/21 13:13:45;;;;;;;;;;;19.60;99.90;;;;;;5014527;28;19971;-70
2023/10/21 13:16:11;;;;;;;;;;;19.80;99.90;;;;;;5013347;28;20391;-68
2023/10/21 13:18:38;;;;;;;;;;;19.70;99.90;;;;;;5012224;28;19973;-68
2023/10/21 13:21:06;;;;;;;;;;;19.40;99.90;;;;;;5013156;28;19979;-70
2023/10/21 13:23:35;;;;;;;;;;;19.40;99.90;;;;;;5013639;28;20399;-71
2023/10/21 13:26:06;;;;;;;;;;;19.30;99.90;;;;;;5013500;28;20008;-71
2023/10/21 13:28:32;;;;;;;;;;;19.10;99.90;;;;;;5010902;28;19925;-70
2023/10/21 13:30:59;;;;;;;;;;;18.80;99.90;;;;;;5010760;28;20084;-70
2023/10/21 13:33:26;;;;;;;;;;;18.50;99.90;;;;;;5012008;28;20490;-73
2023/10/21 13:35:54;;;;;;;;;;;18.50;99.90;;;;;;5011708;28;19929;-72
2023/10/21 13:38:20;;;;;;;;;;;18.70;99.90;;;;;;5012402;28;19933;-71
2023/10/21 13:40:50;;;;;;;;;;;18.90;99.90;;;;;;5013528;28;19925;-71
2023/10/21 13:43:16;;;;;;;;;;;18.90;99.90;;;;;;5013884;28;19957;-72
2023/10/21 13:45:43;;;;;;;;;;;18.70;99.90;;;;;;5013391;28;19925;-70
2023/10/21 13:48:11;;;;;;;;;;;18.70;99.90;;;;;;5013223;28;19925;-71
2023/10/21 13:50:37;;;;;;;;;;;18.80;99.90;;;;;;5012949;28;19925;-70
2023/10/21 13:53:11;;;;;;;;;;;18.70;99.90;;;;;;5013323;28;19933;-68
2023/10/21 13:55:38;;;;;;;;;;;18.30;99.90;;;;;;5013262;28;19926;-69
2023/10/21 13:58:05;;;;;;;;;;;18.00;99.90;;;;;;5013401;28;19926;-68
2023/10/21 14:00:34;;;;;;;;;;;17.80;99.90;;;;;;5012998;28;19980;-68
2023/10/21 14:03:07;;;;;;;;;;;17.90;99.90;;;;;;5013134;28;19933;-69
2023/10/21 14:05:36;;;;;;;;;;;17.90;99.90;;;;;;5013334;28;19937;-68
2023/10/21 14:08:03;;;;;;;;;;;18.00;99.90;;;;;;5012619;28;19925;-69
2023/10/21 14:10:32;;;;;;;;;;;18.00;99.90;;;;;;5013071;28;19929;-69
2023/10/21 14:12:58;;;;;;;;;;;17.90;99.90;;;;;;5013028;28;19933;-68
2023/10/21 14:15:26;;;;;;;;;;;17.70;99.90;;;;;;5013110;28;20359;-69
2023/10/21 14:17:52;;;;;;;;;;;17.70;99.90;;;;;;5012870;28;19930;-69
2023/10/21 14:20:19;;;;;;;;;;;17.80;99.90;;;;;;5013142;28;20404;-69
2023/10/21 14:22:45;;;;;;;;;;;18.00;99.90;;;;;;5012704;28;19937;-69
2023/10/21 14:25:12;;;;;;;;;;;18.00;99.90;;;;;;5013152;28;19996;-69
2023/10/21 14:27:39;;;;;;;;;;;18.10;99.90;;;;;;5012558;28;20040;-69
2023/10/21 14:30:09;;;;;;;;;;;18.10;99.90;;;;;;5013137;28;19937;-69
2023/10/21 14:32:37;;;;;;;;;;;18.10;99.90;;;;;;5012979;28;19925;-69
2023/10/21 14:35:07;;;;;;;;;;;18.10;99.90;;;;;;5013065;28;19948;-69
2023/10/21 14:37:34;;;;;;;;;;;18.00;99.90;;;;;;5011386;28;19925;-69
2023/10/21 14:40:00;;;;;;;;;;;17.90;99.90;;;;;;5012735;28;19933;-69
2023/10/21 14:42:27;;;;;;;;;;;17.80;99.90;;;;;;5012873;28;19925;-69